Participated 4 times
Between 1990 and 1994
Mauro-Antonio Santaromita, Italy
Tour de France 2026 starts from Edinburgh, Scotland in

Stats and Facts from
Tour de France.

2026   2025   2024   2023  2022  2021  2020  2019   2018  2017   2016   2015  2014  2013   2012   2011  2010   2009   2008   2007   2006   2005   2004   2003   2002   2001   2000   1999   1998   1997  1996   1995   1994   1993   1992  1991   1990   1989   1988   1987   1986   1985   1984   1983  1982  1981   1980   1979  1978  1977   1976  1975  1974  1973   1972   1971   1970  1969   1968   1967   1966   1965  1964  1963   1962   1961   1960   1959   1958   1957  1956   1955   1954   1953   1952  1951  1950  1949   1948  1947  1939   1938   1937   1936   1935   1934   1933  1932   1931   1930  1929   1928   1927   1926  1925  1924  1923   1922   1921   1920   1919  1914   1913   1912   1911   1910  1909   1908   1907   1906  1905  1904   1903 

Tourstats
Sitemap

After stage 21 - 2026:
 16451 starters.
  5513 different riders.
  689 teams.
  2419 stages.
  470 restdays.
  469752.50 km.
  5946 abandoned riders.

Click map for 1995 route.
Facts from Tour de France 1995
  |   Stages.  |   Stage winners.  |   Days in jerseys.  |   Teams.  |   All riders.  |   All riders by age.  |   All riders from.  |  

  |   Rookies.  |   Withdrawls.  |   Average speed.  |   GC.  |   Polka  |   Green  |   White  |   Summits. (In tour)  |   Miscellaneous.  |  

Stage 15 on July 18th. 1995
Pick a stage:  Pro  1  2  3  4  5  6  7  8  9  10  11  12  13  14  15  17  18  19  20  

After stage 15:    Miguel Indurain  
  Saint-GironsCauterets | Dist: 206.00km. | Winner: Richard Virenque

Podium
2  Col de Portet-d'Aspet Richard Virenqueafter29.00 km.

1  Col de Menté/Mourtis Richard Virenqueafter45.00 km.

1  Col de Peyresourde Richard Virenqueafter91.00 km.

1  Col d'Aspin Richard Virenqueafter129.00 km.

HC  Col du Tourmalet Richard Virenqueafter159.00 km.

1  Col de Cauterets Richard Virenqueafter206.00 km.


Average speed for all riders in stage:  30,495 km./hr.

1
 Richard Virenque  Festina06h 20' 48"=32,458  km/h

48  Davide Perona  Lampre-Panaria06h 20' 48"=32,458  km/h

2
 Claudio Chiappucci  Carrera Jeans-Tassoni06h 22' 05"+  00:01:17 =32,349  km/h

3
 Hernán Buenahora  Kelme-Avianca06h 22' 06"+  00:01:18 =32,348  km/h

4  Fernando Escartin  Mapei-GP06h 22' 08"+  00:01:20 =32,345  km/h

5  Bjarne Riis  Gewiss-Ballan06h 23' 17"+  00:02:29 =32,248  km/h

6  Miguel Indurain  Banesto06h 23' 22"+  00:02:34 =32,241  km/h

7  Alex Zülle  O.N.C.E.06h 23' 22"+  00:02:34 =32,241  km/h

8  Laurent Madouas  Castorama06h 23' 22"+  00:02:34 =32,241  km/h

9  Ivan Gotti  Gewiss-Ballan06h 24' 13"+  00:03:25 =32,169  km/h

10  Laurent Jalabert  O.N.C.E.06h 25' 20"+  00:04:32 =32,076  km/h

11  Paolo Lanfranchi  Brescialat06h 25' 20"+  00:04:32 =32,076  km/h

12  Tony Rominger  Mapei-GP06h 27' 00"+  00:06:12 =31,938  km/h

13  Melchor Mauri  O.N.C.E.06h 27' 00"+  00:06:12 =31,938  km/h

14  Bo Hamburger  TVM-Polis Direct06h 27' 06"+  00:06:18 =31,930  km/h

15  Álvaro Mejía  Motorola06h 27' 43"+  00:06:55 =31,879  km/h

16  Vladimir Pulnikov  Telecom-ZG-Selle Italia06h 30' 40"+  00:09:52 =31,638  km/h

17  Yvon Ledanois  Gan06h 30' 40"+  00:09:52 =31,638  km/h

18  Viatcheslav Ekimov  Novell06h 30' 40"+  00:09:52 =31,638  km/h

19  Arsenio González  Mapei-GP06h 30' 40"+  00:09:52 =31,638  km/h

20  Bruno Cenghialta  Gewiss-Ballan06h 30' 40"+  00:09:52 =31,638  km/h

21  Laurent Dufaux  Festina06h 30' 40"+  00:09:52 =31,638  km/h

22  Oscar Pelliccioli  Polti06h 30' 40"+  00:09:52 =31,638  km/h

23  Laudelino Cubino  Kelme-Avianca06h 30' 40"+  00:09:52 =31,638  km/h

24  Carmelo Miranda  Banesto06h 34' 02"+  00:13:14 =31,368  km/h

25  Ramon Gonzalez  Banesto06h 34' 02"+  00:13:14 =31,368  km/h

26  Vicente Aparicio  Banesto06h 34' 02"+  00:13:14 =31,368  km/h

27  Jean-François Bernard  Chazal-MBK-Konig06h 34' 09"+  00:13:21 =31,359  km/h

28  Andrea Ferrigato  Telecom-ZG-Selle Italia06h 34' 09"+  00:13:21 =31,359  km/h

29  Gianni Bugno  MG Maglificio-Technogym06h 34' 09"+  00:13:21 =31,359  km/h

30  Massimo Podenzana  Brescialat06h 34' 09"+  00:13:21 =31,359  km/h

31  Marco Pantani  Carrera Jeans-Tassoni06h 34' 09"+  00:13:21 =31,359  km/h

32  Jean-Cyril Robin  Festina06h 34' 09"+  00:13:21 =31,359  km/h

33  Federico Muñoz  Kelme-Avianca06h 34' 09"+  00:13:21 =31,359  km/h

34  Beat Zberg  Carrera Jeans-Tassoni06h 35' 55"+  00:15:07 =31,219  km/h

35  Gérard Rué  Banesto06h 38' 56"+  00:18:08 =30,983  km/h

36  Laurent Brochard  Festina06h 39' 32"+  00:18:44 =30,936  km/h

37  Andrea Tafi  Mapei-GP06h 39' 32"+  00:18:44 =30,936  km/h

38  Fabian Jeker  Festina06h 39' 32"+  00:18:44 =30,936  km/h

39  Stephen Hodge  Festina06h 39' 32"+  00:18:44 =30,936  km/h

40  Gianluca Bortolami  Mapei-GP06h 39' 32"+  00:18:44 =30,936  km/h

41  Herminio Diaz Zabala  O.N.C.E.06h 39' 32"+  00:18:44 =30,936  km/h

42  Erik Breukink  O.N.C.E.06h 39' 32"+  00:18:44 =30,936  km/h

43  François Simon  Castorama06h 40' 13"+  00:19:25 =30,883  km/h

44  Enrico Zaina  Carrera Jeans-Tassoni06h 42' 32"+  00:21:44 =30,706  km/h

45  Leonardo Sierra  Carrera Jeans-Tassoni06h 42' 32"+  00:21:44 =30,706  km/h

46  Didier Rous  Gan06h 42' 32"+  00:21:44 =30,706  km/h

47  Andrea Peron  Motorola06h 42' 32"+  00:21:44 =30,706  km/h

49  Jens Heppner  Telecom-ZG-Selle Italia06h 42' 35"+  00:21:47 =30,702  km/h

50  Georg Totschnig  Polti06h 42' 35"+  00:21:47 =30,702  km/h

51  Eddy Bouwmans  Novell06h 42' 35"+  00:21:47 =30,702  km/h

52  Rolf Järmann  MG Maglificio-Technogym06h 42' 35"+  00:21:47 =30,702  km/h

53  Alberto Elli  MG Maglificio-Technogym06h 42' 35"+  00:21:47 =30,702  km/h

54  Erik Zabel  Telecom-ZG-Selle Italia06h 53' 42"+  00:32:54 =29,877  km/h

55  Flavio Vanzella  MG Maglificio-Technogym06h 53' 42"+  00:32:54 =29,877  km/h

56  Marcello Siboni  Carrera Jeans-Tassoni06h 53' 42"+  00:32:54 =29,877  km/h

57  Guido Bontempi  Gewiss-Ballan06h 53' 42"+  00:32:54 =29,877  km/h

58  Zenon Jaskuła  Aki-Gipiemme06h 53' 42"+  00:32:54 =29,877  km/h

59  Djamolidine Abduzhaparov  Novell06h 53' 42"+  00:32:54 =29,877  km/h

60  Miguel Arroyo  Chazal-MBK-Konig06h 53' 42"+  00:32:54 =29,877  km/h

61  Rolf Aldag  Telecom-ZG-Selle Italia06h 53' 42"+  00:32:54 =29,877  km/h

62  Wilfried Peeters  Mapei-GP06h 53' 42"+  00:32:54 =29,877  km/h

63  Frankie Andreu  Motorola06h 53' 42"+  00:32:54 =29,877  km/h

64  Lance Armstrong  Motorola06h 53' 42"+  00:32:54 =29,877  km/h

65  Stefano Colagè  Telecom-ZG-Selle Italia06h 53' 42"+  00:32:54 =29,877  km/h

66  Maarten Den Bakker  TVM-Polis Direct06h 53' 42"+  00:32:54 =29,877  km/h

67  Udo Bölts  Telecom-ZG-Selle Italia06h 53' 42"+  00:32:54 =29,877  km/h

68  Neil Stephens  O.N.C.E.06h 53' 42"+  00:32:54 =29,877  km/h

69  Marino Alonso  Banesto06h 53' 42"+  00:32:54 =29,877  km/h

70  Thierry Marie  Castorama06h 53' 42"+  00:32:54 =29,877  km/h

71  Jesper Skibby  TVM-Polis Direct06h 53' 42"+  00:32:54 =29,877  km/h

72  José Ramon Uriarte  Banesto06h 53' 42"+  00:32:54 =29,877  km/h

73  Aitor Garmendia  Banesto06h 53' 42"+  00:32:54 =29,877  km/h

74  Maximilian Sciandri  MG Maglificio-Technogym06h 53' 42"+  00:32:54 =29,877  km/h

75  Alberto Volpi  Gewiss-Ballan06h 53' 42"+  00:32:54 =29,877  km/h

76  Johan Museeuw  Mapei-GP06h 53' 42"+  00:32:54 =29,877  km/h

77  Francesco Frattini  Gewiss-Ballan06h 53' 42"+  00:32:54 =29,877  km/h

78  Sergio Barbero  Carrera Jeans-Tassoni06h 53' 42"+  00:32:54 =29,877  km/h

79  Franco Vona  MG Maglificio-Technogym06h 53' 42"+  00:32:54 =29,877  km/h

80  Alessio Galletti  Lampre-Panaria06h 53' 42"+  00:32:54 =29,877  km/h

81  Massimiliano Lelli  Mercatone Uno-Saeco06h 53' 42"+  00:32:54 =29,877  km/h

82  Gabriele Colombo  Gewiss-Ballan06h 53' 42"+  00:32:54 =29,877  km/h

83  Marco Milesi  Brescialat06h 53' 42"+  00:32:54 =29,877  km/h

84  Johan Bruyneel  O.N.C.E.06h 56' 15"+  00:35:27 =29,694  km/h

85  Erik Dekker  Novell06h 56' 15"+  00:35:27 =29,694  km/h

86  Gian Matteo Fagnini  Mercatone Uno-Saeco06h 56' 15"+  00:35:27 =29,694  km/h

87  François Lemarchand  Gan06h 56' 15"+  00:35:27 =29,694  km/h

88  Gilles Talmant  Castorama06h 56' 15"+  00:35:27 =29,694  km/h

89  José Angel Vidal  Kelme-Avianca06h 56' 15"+  00:35:27 =29,694  km/h

90  Mauro Bettin  Aki-Gipiemme06h 56' 15"+  00:35:27 =29,694  km/h

91  Bruno Cornillet  Chazal-MBK-Konig06h 56' 15"+  00:35:27 =29,694  km/h

92  Andrei Tchmil  Lotto-Isoglass06h 56' 15"+  00:35:27 =29,694  km/h

93  Artūras Kasputis  Chazal-MBK-Konig06h 56' 15"+  00:35:27 =29,694  km/h

94  Rossano Brasi  Polti06h 56' 15"+  00:35:27 =29,694  km/h

95  Gilles Bouvard  Chazal-MBK-Konig06h 56' 15"+  00:35:27 =29,694  km/h

96  Jim Van De Laer  TVM-Polis Direct06h 56' 15"+  00:35:27 =29,694  km/h

97  Gianluca Gorini  Aki-Gipiemme06h 56' 15"+  00:35:27 =29,694  km/h

98  Giovanni Lombardi  Polti06h 56' 15"+  00:35:27 =29,694  km/h

99  Marco Serpellini  Lampre-Panaria06h 56' 15"+  00:35:27 =29,694  km/h

100  Mario Scirea  Polti06h 56' 15"+  00:35:27 =29,694  km/h

101  Peter Farazijn  Lotto-Isoglass06h 56' 15"+  00:35:27 =29,694  km/h

102  Thomas Davy  Banesto06h 56' 15"+  00:35:27 =29,694  km/h

103  Frans Maassen  Novell06h 56' 15"+  00:35:27 =29,694  km/h

104  Armand De Las Cuevas  Castorama06h 56' 15"+  00:35:27 =29,694  km/h

105  Serguei Utchakov  Polti06h 56' 15"+  00:35:27 =29,694  km/h

106  Alexander Gontchenkov  Lampre-Panaria06h 56' 15"+  00:35:27 =29,694  km/h

107  Giovanni Fidanza  Polti06h 56' 15"+  00:35:27 =29,694  km/h

108  Dario Bottaro  Gewiss-Ballan06h 56' 15"+  00:35:27 =29,694  km/h

109  Eros Poli  Mercatone Uno-Saeco06h 56' 15"+  00:35:27 =29,694  km/h

110  Davide Cassani  MG Maglificio-Technogym06h 56' 15"+  00:35:27 =29,694  km/h

111  Massimo Donati  Mercatone Uno-Saeco06h 56' 15"+  00:35:27 =29,694  km/h

112  Bart Voskamp  TVM-Polis Direct06h 56' 15"+  00:35:27 =29,694  km/h

113  Arvis Piziks  Novell06h 56' 15"+  00:35:27 =29,694  km/h

114  Steve Bauer  Motorola06h 56' 15"+  00:35:27 =29,694  km/h

115  Stephen Swart  Motorola06h 56' 39"+  00:35:51 =29,665  km/h

116  Giancarlo Perini  Brescialat06h 56' 39"+  00:35:51 =29,665  km/h

117  Nicola Loda  MG Maglificio-Technogym06h 57' 05"+  00:36:17 =29,634  km/h

118  Éric Boyer  Polti06h 57' 21"+  00:36:33 =29,615  km/h

119  Héctor Castaño  Kelme-Avianca07h 03' 41"+  00:42:53 =29,173  km/h


Withdrawls: 10
 RiderTeamReason
37   Dante Rezze Aki-GipiemmeDid not finish
52   Bruno Boscardin FestinaDid not finish
67   Mariano Rojas O.N.C.E.Did not finish
72   Wladimir Belli Lampre-PanariaDid not finish
92   Dirk Baldinger PoltiDid not finish
102   Julio César Aguirre Kelme-AviancaDid not finish
105   Ángel Camargo Kelme-AviancaDid not finish
114   Fabio Casartelli MotorolaDid not finish
82   Christophe Capelle GanExceeded time limit
87   Francis Moreau GanExceeded time limit
Todays birthdays.

1888 • Achille Serroen
1889 • Francois Magatti
1891 • Guglielmo Ceccherelli
1895 • Jules Dubois
1903 • Julien Delbecque
1915 • Emile Masson jr.
1922 • Maurice Lauze
1923 • Franco Franchi
1932 • Kurt Schneider
1940 • Franco Bitossi
1948 • Juan Zurano
1949 • Richard Pianaro
1954 • Alain Vigneron
1969 • Andrea Ferrigato
1975 • Dario Pieri
1978 • Rubén Lobato
1983 • Riccardo Riccò
1994 • Oliviero Troia
1996 • Eddie Dunbar

 

Optimized for Chrome - Edge
and Opera browsers.